sensor_id;sensor_type;location;lat;lon;timestamp;P1;durP1;ratioP1;P2;durP2;ratioP2
48161;SDS011;33950;48.154;16.316;2022-08-19T00:01:23;10.13;;;3.38;;
48161;SDS011;33950;48.154;16.316;2022-08-19T00:03:50;15.38;;;3.97;;
48161;SDS011;33950;48.154;16.316;2022-08-19T00:06:16;18.30;;;2.85;;
48161;SDS011;33950;48.154;16.316;2022-08-19T00:08:42;10.13;;;3.58;;
48161;SDS011;33950;48.154;16.316;2022-08-19T00:11:10;9.43;;;3.53;;
48161;SDS011;33950;48.154;16.316;2022-08-19T00:13:36;12.07;;;3.60;;
48161;SDS011;33950;48.154;16.316;2022-08-19T00:16:03;12.40;;;3.40;;
48161;SDS011;33950;48.154;16.316;2022-08-19T00:18:30;9.82;;;3.10;;
48161;SDS011;33950;48.154;16.316;2022-08-19T00:20:56;15.85;;;3.17;;
48161;SDS011;33950;48.154;16.316;2022-08-19T00:23:22;14.75;;;4.03;;
48161;SDS011;33950;48.154;16.316;2022-08-19T00:25:48;17.17;;;3.58;;
48161;SDS011;33950;48.154;16.316;2022-08-19T00:28:15;7.22;;;3.45;;
48161;SDS011;33950;48.154;16.316;2022-08-19T00:30:41;11.93;;;3.15;;
48161;SDS011;33950;48.154;16.316;2022-08-19T00:33:07;6.82;;;3.47;;
48161;SDS011;33950;48.154;16.316;2022-08-19T00:35:33;10.05;;;3.85;;
48161;SDS011;33950;48.154;16.316;2022-08-19T00:37:59;11.75;;;3.40;;
48161;SDS011;33950;48.154;16.316;2022-08-19T00:40:25;14.73;;;3.92;;
48161;SDS011;33950;48.154;16.316;2022-08-19T00:42:51;9.93;;;3.25;;
48161;SDS011;33950;48.154;16.316;2022-08-19T00:45:20;8.68;;;3.08;;
48161;SDS011;33950;48.154;16.316;2022-08-19T00:47:49;8.93;;;3.20;;
48161;SDS011;33950;48.154;16.316;2022-08-19T00:50:16;11.35;;;3.70;;
48161;SDS011;33950;48.154;16.316;2022-08-19T00:52:44;6.75;;;3.05;;
48161;SDS011;33950;48.154;16.316;2022-08-19T00:55:15;11.98;;;3.65;;
48161;SDS011;33950;48.154;16.316;2022-08-19T00:57:46;10.63;;;3.92;;
48161;SDS011;33950;48.154;16.316;2022-08-19T01:00:17;8.85;;;2.92;;
48161;SDS011;33950;48.154;16.316;2022-08-19T01:02:45;11.00;;;3.40;;
48161;SDS011;33950;48.154;16.316;2022-08-19T01:05:12;8.20;;;3.30;;
48161;SDS011;33950;48.154;16.316;2022-08-19T01:07:40;12.32;;;3.63;;
48161;SDS011;33950;48.154;16.316;2022-08-19T01:10:08;8.32;;;3.53;;
48161;SDS011;33950;48.154;16.316;2022-08-19T01:12:39;14.30;;;3.65;;
48161;SDS011;33950;48.154;16.316;2022-08-19T01:15:06;13.18;;;3.80;;
48161;SDS011;33950;48.154;16.316;2022-08-19T01:17:33;17.95;;;3.80;;
48161;SDS011;33950;48.154;16.316;2022-08-19T01:20:03;16.17;;;3.60;;
48161;SDS011;33950;48.154;16.316;2022-08-19T01:22:32;12.18;;;3.47;;
48161;SDS011;33950;48.154;16.316;2022-08-19T01:25:04;11.90;;;3.72;;
48161;SDS011;33950;48.154;16.316;2022-08-19T01:27:36;14.38;;;3.60;;
48161;SDS011;33950;48.154;16.316;2022-08-19T01:30:04;12.50;;;4.47;;
48161;SDS011;33950;48.154;16.316;2022-08-19T01:32:31;10.43;;;3.30;;
48161;SDS011;33950;48.154;16.316;2022-08-19T01:34:57;8.40;;;3.03;;
48161;SDS011;33950;48.154;16.316;2022-08-19T01:37:23;12.10;;;3.63;;
48161;SDS011;33950;48.154;16.316;2022-08-19T01:39:51;12.60;;;3.25;;
48161;SDS011;33950;48.154;16.316;2022-08-19T01:42:16;13.35;;;3.47;;
48161;SDS011;33950;48.154;16.316;2022-08-19T01:44:42;6.70;;;3.10;;
48161;SDS011;33950;48.154;16.316;2022-08-19T01:47:08;14.98;;;2.92;;
48161;SDS011;33950;48.154;16.316;2022-08-19T01:49:34;9.30;;;3.20;;
48161;SDS011;33950;48.154;16.316;2022-08-19T01:52:01;11.52;;;3.33;;
48161;SDS011;33950;48.154;16.316;2022-08-19T01:54:28;17.80;;;4.85;;
48161;SDS011;33950;48.154;16.316;2022-08-19T01:56:58;10.77;;;3.10;;
48161;SDS011;33950;48.154;16.316;2022-08-19T01:59:28;12.27;;;3.67;;
48161;SDS011;33950;48.154;16.316;2022-08-19T02:01:55;8.82;;;3.53;;
48161;SDS011;33950;48.154;16.316;2022-08-19T02:04:20;13.70;;;3.13;;
48161;SDS011;33950;48.154;16.316;2022-08-19T02:06:46;22.20;;;4.13;;
48161;SDS011;33950;48.154;16.316;2022-08-19T02:09:13;21.52;;;3.63;;
48161;SDS011;33950;48.154;16.316;2022-08-19T02:11:39;17.80;;;3.47;;
48161;SDS011;33950;48.154;16.316;2022-08-19T02:14:08;16.55;;;4.15;;
48161;SDS011;33950;48.154;16.316;2022-08-19T02:16:34;12.65;;;3.22;;
48161;SDS011;33950;48.154;16.316;2022-08-19T02:19:00;12.55;;;3.47;;
48161;SDS011;33950;48.154;16.316;2022-08-19T02:21:27;19.75;;;2.78;;
48161;SDS011;33950;48.154;16.316;2022-08-19T02:23:54;19.40;;;4.07;;
48161;SDS011;33950;48.154;16.316;2022-08-19T02:26:21;12.25;;;3.63;;
48161;SDS011;33950;48.154;16.316;2022-08-19T02:28:47;16.10;;;3.95;;
48161;SDS011;33950;48.154;16.316;2022-08-19T02:31:15;14.73;;;3.13;;
48161;SDS011;33950;48.154;16.316;2022-08-19T02:33:42;17.10;;;3.75;;
48161;SDS011;33950;48.154;16.316;2022-08-19T02:36:09;15.40;;;3.55;;
48161;SDS011;33950;48.154;16.316;2022-08-19T02:38:36;15.45;;;4.28;;
48161;SDS011;33950;48.154;16.316;2022-08-19T02:41:03;12.27;;;3.05;;
48161;SDS011;33950;48.154;16.316;2022-08-19T02:43:33;23.77;;;4.22;;
48161;SDS011;33950;48.154;16.316;2022-08-19T02:46:02;9.88;;;3.75;;
48161;SDS011;33950;48.154;16.316;2022-08-19T02:48:38;10.60;;;4.10;;
48161;SDS011;33950;48.154;16.316;2022-08-19T02:51:04;17.05;;;3.78;;
48161;SDS011;33950;48.154;16.316;2022-08-19T02:53:30;16.98;;;3.45;;
48161;SDS011;33950;48.154;16.316;2022-08-19T02:55:56;15.55;;;3.63;;
48161;SDS011;33950;48.154;16.316;2022-08-19T02:58:22;13.77;;;4.43;;
48161;SDS011;33950;48.154;16.316;2022-08-19T03:00:49;13.07;;;3.55;;
48161;SDS011;33950;48.154;16.316;2022-08-19T03:03:17;16.30;;;3.53;;
48161;SDS011;33950;48.154;16.316;2022-08-19T03:05:45;11.60;;;4.13;;
48161;SDS011;33950;48.154;16.316;2022-08-19T03:08:12;12.23;;;4.78;;
48161;SDS011;33950;48.154;16.316;2022-08-19T03:10:40;11.05;;;3.67;;
48161;SDS011;33950;48.154;16.316;2022-08-19T03:13:08;12.65;;;4.00;;
48161;SDS011;33950;48.154;16.316;2022-08-19T03:15:34;18.10;;;4.38;;
48161;SDS011;33950;48.154;16.316;2022-08-19T03:18:05;14.85;;;3.70;;
48161;SDS011;33950;48.154;16.316;2022-08-19T03:20:30;12.32;;;4.32;;
48161;SDS011;33950;48.154;16.316;2022-08-19T03:22:58;13.80;;;4.35;;
48161;SDS011;33950;48.154;16.316;2022-08-19T03:25:23;8.25;;;4.10;;
48161;SDS011;33950;48.154;16.316;2022-08-19T03:27:49;10.73;;;4.57;;
48161;SDS011;33950;48.154;16.316;2022-08-19T03:30:15;12.18;;;4.15;;
48161;SDS011;33950;48.154;16.316;2022-08-19T03:32:41;11.30;;;4.07;;
48161;SDS011;33950;48.154;16.316;2022-08-19T03:35:07;8.90;;;4.82;;
48161;SDS011;33950;48.154;16.316;2022-08-19T03:37:32;14.00;;;4.93;;
48161;SDS011;33950;48.154;16.316;2022-08-19T03:40:01;11.68;;;4.63;;
48161;SDS011;33950;48.154;16.316;2022-08-19T03:42:28;12.85;;;5.05;;
48161;SDS011;33950;48.154;16.316;2022-08-19T03:44:55;13.98;;;4.15;;
48161;SDS011;33950;48.154;16.316;2022-08-19T03:47:20;10.50;;;4.57;;
48161;SDS011;33950;48.154;16.316;2022-08-19T03:49:46;10.80;;;4.50;;
48161;SDS011;33950;48.154;16.316;2022-08-19T03:52:12;11.98;;;4.47;;
48161;SDS011;33950;48.154;16.316;2022-08-19T03:54:39;9.02;;;4.22;;
48161;SDS011;33950;48.154;16.316;2022-08-19T03:57:06;18.00;;;5.30;;
48161;SDS011;33950;48.154;16.316;2022-08-19T03:59:34;14.20;;;5.90;;
48161;SDS011;33950;48.154;16.316;2022-08-19T04:02:03;11.13;;;5.07;;
48161;SDS011;33950;48.154;16.316;2022-08-19T04:04:34;13.25;;;5.25;;
48161;SDS011;33950;48.154;16.316;2022-08-19T04:06:59;6.90;;;4.15;;
48161;SDS011;33950;48.154;16.316;2022-08-19T04:09:25;16.00;;;5.63;;
48161;SDS011;33950;48.154;16.316;2022-08-19T04:11:52;13.65;;;5.18;;
48161;SDS011;33950;48.154;16.316;2022-08-19T04:14:21;12.20;;;5.43;;
48161;SDS011;33950;48.154;16.316;2022-08-19T04:16:49;14.52;;;5.35;;
48161;SDS011;33950;48.154;16.316;2022-08-19T04:19:16;11.60;;;5.72;;
48161;SDS011;33950;48.154;16.316;2022-08-19T04:21:43;11.07;;;5.07;;
48161;SDS011;33950;48.154;16.316;2022-08-19T04:24:10;14.95;;;5.22;;
48161;SDS011;33950;48.154;16.316;2022-08-19T04:26:37;13.57;;;6.55;;
48161;SDS011;33950;48.154;16.316;2022-08-19T04:29:05;10.55;;;4.95;;
48161;SDS011;33950;48.154;16.316;2022-08-19T04:31:33;15.18;;;5.93;;
48161;SDS011;33950;48.154;16.316;2022-08-19T04:34:03;15.85;;;5.38;;
48161;SDS011;33950;48.154;16.316;2022-08-19T04:36:31;9.93;;;5.68;;
48161;SDS011;33950;48.154;16.316;2022-08-19T04:38:59;11.57;;;5.65;;
48161;SDS011;33950;48.154;16.316;2022-08-19T04:41:28;10.30;;;6.15;;
48161;SDS011;33950;48.154;16.316;2022-08-19T04:44:12;15.80;;;5.93;;
48161;SDS011;33950;48.154;16.316;2022-08-19T04:46:40;9.85;;;5.75;;
48161;SDS011;33950;48.154;16.316;2022-08-19T04:49:06;17.08;;;6.13;;
48161;SDS011;33950;48.154;16.316;2022-08-19T04:51:33;17.23;;;5.50;;
48161;SDS011;33950;48.154;16.316;2022-08-19T04:54:00;12.38;;;5.95;;
48161;SDS011;33950;48.154;16.316;2022-08-19T04:56:27;9.18;;;6.05;;
48161;SDS011;33950;48.154;16.316;2022-08-19T04:58:53;15.60;;;5.90;;
48161;SDS011;33950;48.154;16.316;2022-08-19T05:01:21;15.63;;;6.97;;
48161;SDS011;33950;48.154;16.316;2022-08-19T05:03:50;12.77;;;5.80;;
48161;SDS011;33950;48.154;16.316;2022-08-19T05:06:17;14.15;;;7.05;;
48161;SDS011;33950;48.154;16.316;2022-08-19T05:08:45;18.73;;;7.03;;
48161;SDS011;33950;48.154;16.316;2022-08-19T05:11:12;14.45;;;5.78;;
48161;SDS011;33950;48.154;16.316;2022-08-19T05:13:40;21.83;;;7.72;;
48161;SDS011;33950;48.154;16.316;2022-08-19T05:16:07;13.85;;;6.90;;
48161;SDS011;33950;48.154;16.316;2022-08-19T05:18:34;13.18;;;8.15;;
48161;SDS011;33950;48.154;16.316;2022-08-19T05:21:20;26.23;;;7.65;;
48161;SDS011;33950;48.154;16.316;2022-08-19T05:24:05;15.65;;;8.05;;
48161;SDS011;33950;48.154;16.316;2022-08-19T05:26:34;13.90;;;8.10;;
48161;SDS011;33950;48.154;16.316;2022-08-19T05:29:00;11.55;;;7.07;;
48161;SDS011;33950;48.154;16.316;2022-08-19T05:31:27;24.73;;;7.65;;
48161;SDS011;33950;48.154;16.316;2022-08-19T05:33:53;12.82;;;7.80;;
48161;SDS011;33950;48.154;16.316;2022-08-19T05:36:20;13.10;;;7.25;;
48161;SDS011;33950;48.154;16.316;2022-08-19T05:38:46;16.73;;;7.57;;
48161;SDS011;33950;48.154;16.316;2022-08-19T05:41:13;11.43;;;8.27;;
48161;SDS011;33950;48.154;16.316;2022-08-19T05:43:40;17.48;;;7.63;;
48161;SDS011;33950;48.154;16.316;2022-08-19T05:46:06;17.75;;;7.82;;
48161;SDS011;33950;48.154;16.316;2022-08-19T05:48:33;14.55;;;7.45;;
48161;SDS011;33950;48.154;16.316;2022-08-19T05:51:03;15.23;;;8.40;;
48161;SDS011;33950;48.154;16.316;2022-08-19T05:53:32;14.60;;;7.90;;
48161;SDS011;33950;48.154;16.316;2022-08-19T05:56:02;12.57;;;8.20;;
48161;SDS011;33950;48.154;16.316;2022-08-19T05:58:29;10.73;;;7.78;;
48161;SDS011;33950;48.154;16.316;2022-08-19T06:00:54;15.52;;;8.85;;
48161;SDS011;33950;48.154;16.316;2022-08-19T06:03:20;22.35;;;9.57;;
48161;SDS011;33950;48.154;16.316;2022-08-19T06:05:46;20.27;;;8.35;;
48161;SDS011;33950;48.154;16.316;2022-08-19T06:08:12;22.38;;;8.68;;
48161;SDS011;33950;48.154;16.316;2022-08-19T06:10:39;16.10;;;8.20;;
48161;SDS011;33950;48.154;16.316;2022-08-19T06:13:07;16.50;;;9.57;;
48161;SDS011;33950;48.154;16.316;2022-08-19T06:15:33;19.75;;;10.40;;
48161;SDS011;33950;48.154;16.316;2022-08-19T06:17:59;15.75;;;8.93;;
48161;SDS011;33950;48.154;16.316;2022-08-19T06:20:26;13.57;;;10.05;;
48161;SDS011;33950;48.154;16.316;2022-08-19T06:22:51;24.65;;;9.43;;
48161;SDS011;33950;48.154;16.316;2022-08-19T06:25:17;14.10;;;9.52;;
48161;SDS011;33950;48.154;16.316;2022-08-19T06:27:44;14.38;;;8.80;;
48161;SDS011;33950;48.154;16.316;2022-08-19T06:30:11;12.50;;;9.13;;
48161;SDS011;33950;48.154;16.316;2022-08-19T06:32:37;19.55;;;9.75;;
48161;SDS011;33950;48.154;16.316;2022-08-19T06:35:03;15.90;;;8.27;;
48161;SDS011;33950;48.154;16.316;2022-08-19T06:37:30;18.27;;;8.88;;
48161;SDS011;33950;48.154;16.316;2022-08-19T06:39:56;13.95;;;8.27;;
48161;SDS011;33950;48.154;16.316;2022-08-19T06:42:22;13.05;;;7.95;;
48161;SDS011;33950;48.154;16.316;2022-08-19T06:44:49;19.42;;;8.20;;
48161;SDS011;33950;48.154;16.316;2022-08-19T06:47:15;15.07;;;9.48;;
48161;SDS011;33950;48.154;16.316;2022-08-19T06:49:42;17.17;;;7.97;;
48161;SDS011;33950;48.154;16.316;2022-08-19T06:52:08;12.65;;;8.30;;
48161;SDS011;33950;48.154;16.316;2022-08-19T06:54:37;10.88;;;7.53;;
48161;SDS011;33950;48.154;16.316;2022-08-19T06:57:03;11.48;;;8.43;;
48161;SDS011;33950;48.154;16.316;2022-08-19T06:59:29;10.70;;;7.38;;
48161;SDS011;33950;48.154;16.316;2022-08-19T07:01:59;15.55;;;8.25;;
48161;SDS011;33950;48.154;16.316;2022-08-19T07:04:29;16.08;;;7.07;;
48161;SDS011;33950;48.154;16.316;2022-08-19T07:07:01;13.13;;;6.90;;
48161;SDS011;33950;48.154;16.316;2022-08-19T07:09:31;11.77;;;6.75;;
48161;SDS011;33950;48.154;16.316;2022-08-19T07:11:57;8.60;;;6.25;;
48161;SDS011;33950;48.154;16.316;2022-08-19T07:14:24;8.32;;;6.63;;
48161;SDS011;33950;48.154;16.316;2022-08-19T07:16:51;11.30;;;6.10;;
48161;SDS011;33950;48.154;16.316;2022-08-19T07:19:21;8.18;;;6.03;;
48161;SDS011;33950;48.154;16.316;2022-08-19T07:21:49;8.98;;;6.25;;
48161;SDS011;33950;48.154;16.316;2022-08-19T07:24:17;10.05;;;6.28;;
48161;SDS011;33950;48.154;16.316;2022-08-19T07:26:44;8.77;;;6.47;;
48161;SDS011;33950;48.154;16.316;2022-08-19T07:29:11;13.88;;;6.90;;
48161;SDS011;33950;48.154;16.316;2022-08-19T07:31:37;9.82;;;6.32;;
48161;SDS011;33950;48.154;16.316;2022-08-19T07:34:04;11.25;;;5.85;;
48161;SDS011;33950;48.154;16.316;2022-08-19T07:36:35;11.68;;;6.60;;
48161;SDS011;33950;48.154;16.316;2022-08-19T07:39:05;7.07;;;6.20;;
48161;SDS011;33950;48.154;16.316;2022-08-19T07:41:32;17.13;;;7.18;;
48161;SDS011;33950;48.154;16.316;2022-08-19T07:44:02;7.90;;;5.90;;
48161;SDS011;33950;48.154;16.316;2022-08-19T07:46:30;9.43;;;5.75;;
48161;SDS011;33950;48.154;16.316;2022-08-19T07:49:07;13.10;;;6.00;;
48161;SDS011;33950;48.154;16.316;2022-08-19T07:51:35;7.55;;;5.78;;
48161;SDS011;33950;48.154;16.316;2022-08-19T07:54:01;9.15;;;6.03;;
48161;SDS011;33950;48.154;16.316;2022-08-19T07:56:27;10.30;;;5.68;;
48161;SDS011;33950;48.154;16.316;2022-08-19T07:58:53;8.48;;;6.07;;
48161;SDS011;33950;48.154;16.316;2022-08-19T08:01:20;11.05;;;5.90;;
48161;SDS011;33950;48.154;16.316;2022-08-19T08:03:48;13.10;;;6.47;;
48161;SDS011;33950;48.154;16.316;2022-08-19T08:06:34;10.75;;;5.80;;
48161;SDS011;33950;48.154;16.316;2022-08-19T08:09:22;18.13;;;6.53;;
48161;SDS011;33950;48.154;16.316;2022-08-19T08:11:50;14.23;;;6.53;;
48161;SDS011;33950;48.154;16.316;2022-08-19T08:14:19;11.45;;;5.70;;
48161;SDS011;33950;48.154;16.316;2022-08-19T08:16:47;11.27;;;6.38;;
48161;SDS011;33950;48.154;16.316;2022-08-19T08:19:14;12.35;;;6.40;;
48161;SDS011;33950;48.154;16.316;2022-08-19T08:21:41;11.13;;;5.35;;
48161;SDS011;33950;48.154;16.316;2022-08-19T08:24:08;7.30;;;5.63;;
48161;SDS011;33950;48.154;16.316;2022-08-19T08:26:34;14.30;;;6.22;;
48161;SDS011;33950;48.154;16.316;2022-08-19T08:29:00;9.35;;;5.30;;
48161;SDS011;33950;48.154;16.316;2022-08-19T08:31:26;7.80;;;4.47;;
48161;SDS011;33950;48.154;16.316;2022-08-19T08:33:55;11.07;;;5.55;;
48161;SDS011;33950;48.154;16.316;2022-08-19T08:36:21;10.27;;;5.55;;
48161;SDS011;33950;48.154;16.316;2022-08-19T08:38:48;9.68;;;5.35;;
48161;SDS011;33950;48.154;16.316;2022-08-19T08:41:17;8.85;;;5.30;;
48161;SDS011;33950;48.154;16.316;2022-08-19T08:43:48;9.52;;;5.10;;
48161;SDS011;33950;48.154;16.316;2022-08-19T08:46:17;12.73;;;5.45;;
48161;SDS011;33950;48.154;16.316;2022-08-19T08:48:48;14.53;;;5.53;;
48161;SDS011;33950;48.154;16.316;2022-08-19T08:51:20;12.82;;;5.10;;
48161;SDS011;33950;48.154;16.316;2022-08-19T08:53:52;11.55;;;5.72;;
48161;SDS011;33950;48.154;16.316;2022-08-19T08:56:19;16.85;;;5.90;;
48161;SDS011;33950;48.154;16.316;2022-08-19T08:58:47;8.07;;;5.65;;
48161;SDS011;33950;48.154;16.316;2022-08-19T09:01:19;11.50;;;5.55;;
48161;SDS011;33950;48.154;16.316;2022-08-19T09:03:45;14.63;;;6.25;;
48161;SDS011;33950;48.154;16.316;2022-08-19T09:06:12;11.30;;;5.55;;
48161;SDS011;33950;48.154;16.316;2022-08-19T09:08:45;9.75;;;4.63;;
48161;SDS011;33950;48.154;16.316;2022-08-19T09:11:24;13.57;;;5.30;;
48161;SDS011;33950;48.154;16.316;2022-08-19T09:14:05;10.13;;;5.88;;
48161;SDS011;33950;48.154;16.316;2022-08-19T09:16:36;11.35;;;6.10;;
48161;SDS011;33950;48.154;16.316;2022-08-19T09:19:05;11.32;;;5.63;;
48161;SDS011;33950;48.154;16.316;2022-08-19T09:21:32;8.52;;;5.30;;
48161;SDS011;33950;48.154;16.316;2022-08-19T09:23:59;15.50;;;5.65;;
48161;SDS011;33950;48.154;16.316;2022-08-19T09:26:27;11.38;;;5.18;;
48161;SDS011;33950;48.154;16.316;2022-08-19T09:28:53;21.27;;;6.05;;
48161;SDS011;33950;48.154;16.316;2022-08-19T09:31:20;15.52;;;5.00;;
48161;SDS011;33950;48.154;16.316;2022-08-19T09:33:47;9.85;;;5.20;;
48161;SDS011;33950;48.154;16.316;2022-08-19T09:36:15;11.80;;;5.00;;
48161;SDS011;33950;48.154;16.316;2022-08-19T09:38:43;8.40;;;5.80;;
48161;SDS011;33950;48.154;16.316;2022-08-19T09:41:11;16.15;;;5.03;;
48161;SDS011;33950;48.154;16.316;2022-08-19T09:43:40;11.73;;;5.15;;
48161;SDS011;33950;48.154;16.316;2022-08-19T09:46:07;13.15;;;4.80;;
48161;SDS011;33950;48.154;16.316;2022-08-19T09:48:34;15.55;;;4.85;;
48161;SDS011;33950;48.154;16.316;2022-08-19T09:51:04;14.15;;;5.57;;
48161;SDS011;33950;48.154;16.316;2022-08-19T09:53:31;14.15;;;5.30;;
48161;SDS011;33950;48.154;16.316;2022-08-19T09:55:57;10.65;;;5.32;;
48161;SDS011;33950;48.154;16.316;2022-08-19T09:58:23;11.32;;;6.18;;
48161;SDS011;33950;48.154;16.316;2022-08-19T10:00:54;14.25;;;5.28;;
48161;SDS011;33950;48.154;16.316;2022-08-19T10:03:20;13.48;;;5.45;;
48161;SDS011;33950;48.154;16.316;2022-08-19T10:05:46;18.13;;;6.35;;
48161;SDS011;33950;48.154;16.316;2022-08-19T10:08:15;10.00;;;5.20;;
48161;SDS011;33950;48.154;16.316;2022-08-19T10:10:42;15.60;;;5.03;;
48161;SDS011;33950;48.154;16.316;2022-08-19T10:13:09;18.83;;;5.28;;
48161;SDS011;33950;48.154;16.316;2022-08-19T10:15:35;6.82;;;4.47;;
48161;SDS011;33950;48.154;16.316;2022-08-19T10:18:06;16.70;;;5.88;;
48161;SDS011;33950;48.154;16.316;2022-08-19T10:20:32;16.15;;;6.07;;
48161;SDS011;33950;48.154;16.316;2022-08-19T10:22:59;12.63;;;5.18;;
48161;SDS011;33950;48.154;16.316;2022-08-19T10:25:25;13.02;;;4.93;;
48161;SDS011;33950;48.154;16.316;2022-08-19T10:27:51;9.90;;;5.22;;
48161;SDS011;33950;48.154;16.316;2022-08-19T10:30:17;14.10;;;5.47;;
48161;SDS011;33950;48.154;16.316;2022-08-19T10:32:44;17.70;;;5.20;;
48161;SDS011;33950;48.154;16.316;2022-08-19T10:35:12;24.30;;;6.40;;
48161;SDS011;33950;48.154;16.316;2022-08-19T10:37:38;21.23;;;6.78;;
48161;SDS011;33950;48.154;16.316;2022-08-19T10:40:05;10.82;;;5.82;;
48161;SDS011;33950;48.154;16.316;2022-08-19T10:42:33;20.15;;;6.00;;
48161;SDS011;33950;48.154;16.316;2022-08-19T10:44:59;8.35;;;5.20;;
48161;SDS011;33950;48.154;16.316;2022-08-19T10:47:25;13.32;;;5.45;;
48161;SDS011;33950;48.154;16.316;2022-08-19T10:49:52;18.70;;;5.28;;
48161;SDS011;33950;48.154;16.316;2022-08-19T10:52:38;18.83;;;6.28;;
48161;SDS011;33950;48.154;16.316;2022-08-19T10:55:06;18.38;;;6.00;;
48161;SDS011;33950;48.154;16.316;2022-08-19T10:57:50;15.85;;;6.20;;
48161;SDS011;33950;48.154;16.316;2022-08-19T11:00:17;19.23;;;6.57;;
48161;SDS011;33950;48.154;16.316;2022-08-19T11:02:43;18.08;;;6.13;;
48161;SDS011;33950;48.154;16.316;2022-08-19T11:05:11;16.05;;;5.03;;
48161;SDS011;33950;48.154;16.316;2022-08-19T11:07:39;20.27;;;5.90;;
48161;SDS011;33950;48.154;16.316;2022-08-19T11:10:05;16.48;;;5.18;;
48161;SDS011;33950;48.154;16.316;2022-08-19T11:12:33;18.00;;;5.22;;
48161;SDS011;33950;48.154;16.316;2022-08-19T11:15:01;16.02;;;4.97;;
48161;SDS011;33950;48.154;16.316;2022-08-19T11:17:27;9.30;;;4.78;;
48161;SDS011;33950;48.154;16.316;2022-08-19T11:19:52;17.05;;;4.80;;
48161;SDS011;33950;48.154;16.316;2022-08-19T11:22:18;13.68;;;5.38;;
48161;SDS011;33950;48.154;16.316;2022-08-19T11:24:46;16.63;;;6.32;;
48161;SDS011;33950;48.154;16.316;2022-08-19T11:27:12;20.05;;;5.85;;
48161;SDS011;33950;48.154;16.316;2022-08-19T11:29:38;23.52;;;4.80;;
48161;SDS011;33950;48.154;16.316;2022-08-19T11:32:04;17.83;;;5.78;;
48161;SDS011;33950;48.154;16.316;2022-08-19T11:34:33;10.25;;;4.88;;
48161;SDS011;33950;48.154;16.316;2022-08-19T11:37:01;28.92;;;6.68;;
48161;SDS011;33950;48.154;16.316;2022-08-19T11:39:27;18.15;;;4.50;;
48161;SDS011;33950;48.154;16.316;2022-08-19T11:41:57;21.48;;;5.40;;
48161;SDS011;33950;48.154;16.316;2022-08-19T11:44:24;18.33;;;4.55;;
48161;SDS011;33950;48.154;16.316;2022-08-19T11:46:50;15.60;;;4.10;;
48161;SDS011;33950;48.154;16.316;2022-08-19T11:49:18;20.60;;;4.85;;
48161;SDS011;33950;48.154;16.316;2022-08-19T11:51:46;25.73;;;4.55;;
48161;SDS011;33950;48.154;16.316;2022-08-19T11:54:13;33.45;;;4.72;;
48161;SDS011;33950;48.154;16.316;2022-08-19T11:56:41;29.15;;;4.40;;
48161;SDS011;33950;48.154;16.316;2022-08-19T11:59:09;25.30;;;5.40;;
48161;SDS011;33950;48.154;16.316;2022-08-19T12:01:35;18.23;;;4.22;;
48161;SDS011;33950;48.154;16.316;2022-08-19T12:04:01;23.23;;;4.43;;
48161;SDS011;33950;48.154;16.316;2022-08-19T12:06:30;20.60;;;4.80;;
48161;SDS011;33950;48.154;16.316;2022-08-19T12:09:00;18.95;;;4.85;;
48161;SDS011;33950;48.154;16.316;2022-08-19T12:11:27;18.55;;;5.03;;
48161;SDS011;33950;48.154;16.316;2022-08-19T12:13:53;20.75;;;5.25;;
48161;SDS011;33950;48.154;16.316;2022-08-19T12:16:22;25.27;;;5.63;;
48161;SDS011;33950;48.154;16.316;2022-08-19T12:18:49;17.95;;;4.38;;
48161;SDS011;33950;48.154;16.316;2022-08-19T12:21:19;28.42;;;6.05;;
48161;SDS011;33950;48.154;16.316;2022-08-19T12:23:47;29.02;;;6.43;;
48161;SDS011;33950;48.154;16.316;2022-08-19T12:26:14;22.40;;;4.90;;
48161;SDS011;33950;48.154;16.316;2022-08-19T12:28:40;25.48;;;3.92;;
48161;SDS011;33950;48.154;16.316;2022-08-19T12:31:06;21.40;;;5.82;;
48161;SDS011;33950;48.154;16.316;2022-08-19T12:33:33;22.75;;;5.28;;
48161;SDS011;33950;48.154;16.316;2022-08-19T12:36:00;21.60;;;5.35;;
48161;SDS011;33950;48.154;16.316;2022-08-19T12:38:28;21.02;;;4.80;;
48161;SDS011;33950;48.154;16.316;2022-08-19T12:40:53;20.30;;;5.65;;
48161;SDS011;33950;48.154;16.316;2022-08-19T12:43:19;26.42;;;5.68;;
48161;SDS011;33950;48.154;16.316;2022-08-19T12:45:45;20.65;;;4.70;;
48161;SDS011;33950;48.154;16.316;2022-08-19T12:48:11;17.77;;;5.63;;
48161;SDS011;33950;48.154;16.316;2022-08-19T12:50:39;30.95;;;5.57;;
48161;SDS011;33950;48.154;16.316;2022-08-19T12:53:06;23.42;;;5.65;;
48161;SDS011;33950;48.154;16.316;2022-08-19T12:55:31;21.92;;;5.00;;
48161;SDS011;33950;48.154;16.316;2022-08-19T12:57:57;16.55;;;5.80;;
48161;SDS011;33950;48.154;16.316;2022-08-19T13:00:23;26.38;;;5.25;;
48161;SDS011;33950;48.154;16.316;2022-08-19T13:02:49;22.73;;;5.72;;
48161;SDS011;33950;48.154;16.316;2022-08-19T13:05:17;15.93;;;4.85;;
48161;SDS011;33950;48.154;16.316;2022-08-19T13:07:47;24.20;;;4.88;;
48161;SDS011;33950;48.154;16.316;2022-08-19T13:10:16;20.73;;;5.50;;
48161;SDS011;33950;48.154;16.316;2022-08-19T13:12:43;26.52;;;5.47;;
48161;SDS011;33950;48.154;16.316;2022-08-19T13:15:10;28.33;;;5.75;;
48161;SDS011;33950;48.154;16.316;2022-08-19T13:17:37;23.77;;;5.07;;
48161;SDS011;33950;48.154;16.316;2022-08-19T13:20:04;17.73;;;5.03;;
48161;SDS011;33950;48.154;16.316;2022-08-19T13:22:32;23.63;;;5.60;;
48161;SDS011;33950;48.154;16.316;2022-08-19T13:24:59;25.80;;;5.60;;
48161;SDS011;33950;48.154;16.316;2022-08-19T13:27:25;17.35;;;5.55;;
48161;SDS011;33950;48.154;16.316;2022-08-19T13:29:51;18.20;;;5.25;;
48161;SDS011;33950;48.154;16.316;2022-08-19T13:32:35;23.23;;;5.80;;
48161;SDS011;33950;48.154;16.316;2022-08-19T13:35:19;29.60;;;5.07;;
48161;SDS011;33950;48.154;16.316;2022-08-19T13:37:45;31.25;;;5.20;;
48161;SDS011;33950;48.154;16.316;2022-08-19T13:40:13;11.88;;;4.78;;
48161;SDS011;33950;48.154;16.316;2022-08-19T13:42:43;15.52;;;5.07;;
48161;SDS011;33950;48.154;16.316;2022-08-19T13:45:11;18.90;;;5.50;;
48161;SDS011;33950;48.154;16.316;2022-08-19T13:47:39;19.13;;;5.10;;
48161;SDS011;33950;48.154;16.316;2022-08-19T13:50:08;19.90;;;4.68;;
48161;SDS011;33950;48.154;16.316;2022-08-19T13:52:34;23.35;;;4.85;;
48161;SDS011;33950;48.154;16.316;2022-08-19T13:54:59;17.05;;;5.25;;
48161;SDS011;33950;48.154;16.316;2022-08-19T13:57:27;30.90;;;5.15;;
48161;SDS011;33950;48.154;16.316;2022-08-19T13:59:52;15.65;;;5.10;;
48161;SDS011;33950;48.154;16.316;2022-08-19T14:02:18;12.55;;;4.40;;
48161;SDS011;33950;48.154;16.316;2022-08-19T14:04:44;19.65;;;4.95;;
48161;SDS011;33950;48.154;16.316;2022-08-19T14:07:10;21.65;;;4.85;;
48161;SDS011;33950;48.154;16.316;2022-08-19T14:09:35;17.13;;;4.90;;
48161;SDS011;33950;48.154;16.316;2022-08-19T14:12:01;16.52;;;5.88;;
48161;SDS011;33950;48.154;16.316;2022-08-19T14:14:29;23.73;;;6.55;;
48161;SDS011;33950;48.154;16.316;2022-08-19T14:16:55;18.08;;;4.13;;
48161;SDS011;33950;48.154;16.316;2022-08-19T14:19:21;19.08;;;4.32;;
48161;SDS011;33950;48.154;16.316;2022-08-19T14:21:46;21.13;;;3.50;;
48161;SDS011;33950;48.154;16.316;2022-08-19T14:24:12;20.13;;;4.75;;
48161;SDS011;33950;48.154;16.316;2022-08-19T14:26:38;18.98;;;3.85;;